sensor_id;sensor_type;location;lat;lon;timestamp;temperature;humidity
5055;DHT22;13829;48.990;8.346;2023-04-24T00:01:34;12.20;99.90
5055;DHT22;13829;48.990;8.346;2023-04-24T00:04:02;12.20;99.90
5055;DHT22;13829;48.990;8.346;2023-04-24T00:06:29;12.20;99.90
5055;DHT22;13829;48.990;8.346;2023-04-24T00:09:00;12.20;99.90
5055;DHT22;13829;48.990;8.346;2023-04-24T00:11:28;12.20;99.90
5055;DHT22;13829;48.990;8.346;2023-04-24T00:13:56;12.30;99.90
5055;DHT22;13829;48.990;8.346;2023-04-24T00:16:23;12.40;99.90
5055;DHT22;13829;48.990;8.346;2023-04-24T00:18:50;12.50;99.90
5055;DHT22;13829;48.990;8.346;2023-04-24T00:21:18;12.70;99.90
5055;DHT22;13829;48.990;8.346;2023-04-24T00:23:45;12.70;99.90
5055;DHT22;13829;48.990;8.346;2023-04-24T00:26:14;12.80;99.90
5055;DHT22;13829;48.990;8.346;2023-04-24T00:28:41;12.80;99.90
5055;DHT22;13829;48.990;8.346;2023-04-24T00:31:08;12.80;99.90
5055;DHT22;13829;48.990;8.346;2023-04-24T00:33:35;12.80;99.90
5055;DHT22;13829;48.990;8.346;2023-04-24T00:36:02;12.70;99.90
5055;DHT22;13829;48.990;8.346;2023-04-24T00:38:30;12.70;99.90
5055;DHT22;13829;48.990;8.346;2023-04-24T00:40:57;12.60;99.90
5055;DHT22;13829;48.990;8.346;2023-04-24T00:43:25;12.60;99.90
5055;DHT22;13829;48.990;8.346;2023-04-24T00:45:52;12.60;99.90
5055;DHT22;13829;48.990;8.346;2023-04-24T00:48:20;12.60;99.90
5055;DHT22;13829;48.990;8.346;2023-04-24T00:50:47;12.50;99.90
5055;DHT22;13829;48.990;8.346;2023-04-24T00:53:14;12.60;99.90
5055;DHT22;13829;48.990;8.346;2023-04-24T00:55:41;12.50;99.90
5055;DHT22;13829;48.990;8.346;2023-04-24T00:58:09;12.50;99.90
5055;DHT22;13829;48.990;8.346;2023-04-24T01:00:37;12.60;99.90
5055;DHT22;13829;48.990;8.346;2023-04-24T01:03:05;12.60;99.90
5055;DHT22;13829;48.990;8.346;2023-04-24T01:05:33;12.50;99.90
5055;DHT22;13829;48.990;8.346;2023-04-24T01:08:01;12.50;99.90
5055;DHT22;13829;48.990;8.346;2023-04-24T01:10:30;12.40;99.90
5055;DHT22;13829;48.990;8.346;2023-04-24T01:12:59;12.30;99.90
5055;DHT22;13829;48.990;8.346;2023-04-24T01:15:26;12.40;99.90
5055;DHT22;13829;48.990;8.346;2023-04-24T01:17:54;12.20;99.90
5055;DHT22;13829;48.990;8.346;2023-04-24T01:20:21;12.20;99.90
5055;DHT22;13829;48.990;8.346;2023-04-24T01:22:51;12.10;99.90
5055;DHT22;13829;48.990;8.346;2023-04-24T01:25:18;12.10;99.90
5055;DHT22;13829;48.990;8.346;2023-04-24T01:27:46;12.20;99.90
5055;DHT22;13829;48.990;8.346;2023-04-24T01:30:13;12.20;99.90
5055;DHT22;13829;48.990;8.346;2023-04-24T01:32:41;12.30;99.90
5055;DHT22;13829;48.990;8.346;2023-04-24T01:35:10;12.40;99.90
5055;DHT22;13829;48.990;8.346;2023-04-24T01:37:37;12.40;99.90
5055;DHT22;13829;48.990;8.346;2023-04-24T01:40:07;12.50;99.90
5055;DHT22;13829;48.990;8.346;2023-04-24T01:42:35;12.60;99.90
5055;DHT22;13829;48.990;8.346;2023-04-24T01:45:03;12.70;99.90
5055;DHT22;13829;48.990;8.346;2023-04-24T01:47:32;12.70;99.90
5055;DHT22;13829;48.990;8.346;2023-04-24T01:49:58;12.70;99.90
5055;DHT22;13829;48.990;8.346;2023-04-24T01:52:25;12.60;99.90
5055;DHT22;13829;48.990;8.346;2023-04-24T01:54:54;12.60;99.90
5055;DHT22;13829;48.990;8.346;2023-04-24T01:57:22;12.40;99.90
5055;DHT22;13829;48.990;8.346;2023-04-24T01:59:51;12.40;99.90
5055;DHT22;13829;48.990;8.346;2023-04-24T02:02:18;12.40;99.90
5055;DHT22;13829;48.990;8.346;2023-04-24T02:04:46;12.40;99.90
5055;DHT22;13829;48.990;8.346;2023-04-24T02:07:13;12.30;99.90
5055;DHT22;13829;48.990;8.346;2023-04-24T02:09:40;12.20;99.90
5055;DHT22;13829;48.990;8.346;2023-04-24T02:12:07;12.20;99.90
5055;DHT22;13829;48.990;8.346;2023-04-24T02:14:36;12.20;99.90
5055;DHT22;13829;48.990;8.346;2023-04-24T02:17:03;12.10;99.90
5055;DHT22;13829;48.990;8.346;2023-04-24T02:19:30;12.10;99.90
5055;DHT22;13829;48.990;8.346;2023-04-24T02:21:57;12.10;99.90
5055;DHT22;13829;48.990;8.346;2023-04-24T02:24:24;12.10;99.90
5055;DHT22;13829;48.990;8.346;2023-04-24T02:26:51;12.10;99.90
5055;DHT22;13829;48.990;8.346;2023-04-24T02:29:18;12.20;99.90
5055;DHT22;13829;48.990;8.346;2023-04-24T02:31:46;12.20;99.90
5055;DHT22;13829;48.990;8.346;2023-04-24T02:34:13;12.30;99.90
5055;DHT22;13829;48.990;8.346;2023-04-24T02:36:41;12.30;99.90
5055;DHT22;13829;48.990;8.346;2023-04-24T02:39:08;12.30;99.90
5055;DHT22;13829;48.990;8.346;2023-04-24T02:41:35;12.40;99.90
5055;DHT22;13829;48.990;8.346;2023-04-24T02:44:02;12.50;99.90
5055;DHT22;13829;48.990;8.346;2023-04-24T02:46:29;12.40;99.90
5055;DHT22;13829;48.990;8.346;2023-04-24T02:48:58;12.50;99.90
5055;DHT22;13829;48.990;8.346;2023-04-24T02:51:24;12.60;99.90
5055;DHT22;13829;48.990;8.346;2023-04-24T02:53:52;12.60;99.90
5055;DHT22;13829;48.990;8.346;2023-04-24T02:56:19;12.60;99.90
5055;DHT22;13829;48.990;8.346;2023-04-24T02:58:46;12.50;99.90
5055;DHT22;13829;48.990;8.346;2023-04-24T03:01:13;12.40;99.90
5055;DHT22;13829;48.990;8.346;2023-04-24T03:03:40;12.40;99.90
5055;DHT22;13829;48.990;8.346;2023-04-24T03:06:08;12.20;99.90
5055;DHT22;13829;48.990;8.346;2023-04-24T03:08:35;12.10;99.90
5055;DHT22;13829;48.990;8.346;2023-04-24T03:11:02;12.00;99.90
5055;DHT22;13829;48.990;8.346;2023-04-24T03:13:30;12.10;99.90
5055;DHT22;13829;48.990;8.346;2023-04-24T03:15:56;11.90;99.90
5055;DHT22;13829;48.990;8.346;2023-04-24T03:18:23;11.90;99.90
5055;DHT22;13829;48.990;8.346;2023-04-24T03:20:50;11.80;99.90
5055;DHT22;13829;48.990;8.346;2023-04-24T03:23:19;11.80;99.90
5055;DHT22;13829;48.990;8.346;2023-04-24T03:25:46;11.70;99.90
5055;DHT22;13829;48.990;8.346;2023-04-24T03:28:13;11.70;99.90
5055;DHT22;13829;48.990;8.346;2023-04-24T03:30:40;11.80;99.90
5055;DHT22;13829;48.990;8.346;2023-04-24T03:33:07;11.80;99.90
5055;DHT22;13829;48.990;8.346;2023-04-24T03:35:35;11.80;99.90
5055;DHT22;13829;48.990;8.346;2023-04-24T03:38:02;11.80;99.90
5055;DHT22;13829;48.990;8.346;2023-04-24T03:40:31;11.80;99.90
5055;DHT22;13829;48.990;8.346;2023-04-24T03:42:59;11.80;99.90
5055;DHT22;13829;48.990;8.346;2023-04-24T03:45:25;11.80;99.90
5055;DHT22;13829;48.990;8.346;2023-04-24T03:47:52;11.70;99.90
5055;DHT22;13829;48.990;8.346;2023-04-24T03:50:20;11.80;99.90
5055;DHT22;13829;48.990;8.346;2023-04-24T03:52:47;11.70;99.90
5055;DHT22;13829;48.990;8.346;2023-04-24T03:55:14;11.70;99.90
5055;DHT22;13829;48.990;8.346;2023-04-24T03:57:42;11.70;99.90
5055;DHT22;13829;48.990;8.346;2023-04-24T04:00:10;11.50;99.90
5055;DHT22;13829;48.990;8.346;2023-04-24T04:02:38;11.50;99.90
5055;DHT22;13829;48.990;8.346;2023-04-24T04:05:05;11.40;99.90
5055;DHT22;13829;48.990;8.346;2023-04-24T04:07:33;11.30;99.90
5055;DHT22;13829;48.990;8.346;2023-04-24T04:10:00;11.40;99.90
5055;DHT22;13829;48.990;8.346;2023-04-24T04:12:27;11.30;99.90
5055;DHT22;13829;48.990;8.346;2023-04-24T04:14:55;11.30;99.90
5055;DHT22;13829;48.990;8.346;2023-04-24T04:17:22;11.10;99.90
5055;DHT22;13829;48.990;8.346;2023-04-24T04:19:49;11.00;99.90
5055;DHT22;13829;48.990;8.346;2023-04-24T04:22:16;11.00;99.90
5055;DHT22;13829;48.990;8.346;2023-04-24T04:24:43;10.90;99.90
5055;DHT22;13829;48.990;8.346;2023-04-24T04:27:11;10.90;99.90
5055;DHT22;13829;48.990;8.346;2023-04-24T04:29:38;10.80;99.90
5055;DHT22;13829;48.990;8.346;2023-04-24T04:32:06;10.80;99.90
5055;DHT22;13829;48.990;8.346;2023-04-24T04:34:33;10.70;99.90
5055;DHT22;13829;48.990;8.346;2023-04-24T04:37:03;10.70;99.90
5055;DHT22;13829;48.990;8.346;2023-04-24T04:39:30;10.70;99.90
5055;DHT22;13829;48.990;8.346;2023-04-24T04:41:57;10.60;99.90
5055;DHT22;13829;48.990;8.346;2023-04-24T04:44:24;10.70;99.90
5055;DHT22;13829;48.990;8.346;2023-04-24T04:46:50;10.70;99.90
5055;DHT22;13829;48.990;8.346;2023-04-24T04:49:23;10.70;99.90
5055;DHT22;13829;48.990;8.346;2023-04-24T04:51:50;10.80;99.90
5055;DHT22;13829;48.990;8.346;2023-04-24T04:54:17;10.80;99.90
5055;DHT22;13829;48.990;8.346;2023-04-24T04:56:44;10.80;99.90
5055;DHT22;13829;48.990;8.346;2023-04-24T04:59:11;10.80;99.90
5055;DHT22;13829;48.990;8.346;2023-04-24T05:01:38;10.80;99.90
5055;DHT22;13829;48.990;8.346;2023-04-24T05:04:05;10.80;99.90
5055;DHT22;13829;48.990;8.346;2023-04-24T05:06:33;10.90;99.90
5055;DHT22;13829;48.990;8.346;2023-04-24T05:09:01;10.90;99.90
5055;DHT22;13829;48.990;8.346;2023-04-24T05:11:28;11.00;99.90
5055;DHT22;13829;48.990;8.346;2023-04-24T05:13:56;11.10;99.90
5055;DHT22;13829;48.990;8.346;2023-04-24T05:16:23;11.20;99.90
5055;DHT22;13829;48.990;8.346;2023-04-24T05:18:50;11.40;99.90
5055;DHT22;13829;48.990;8.346;2023-04-24T05:21:17;11.60;99.90
5055;DHT22;13829;48.990;8.346;2023-04-24T05:23:45;11.70;99.90
5055;DHT22;13829;48.990;8.346;2023-04-24T05:26:13;11.80;99.90
5055;DHT22;13829;48.990;8.346;2023-04-24T05:28:40;11.80;99.90
5055;DHT22;13829;48.990;8.346;2023-04-24T05:31:07;11.80;99.90
5055;DHT22;13829;48.990;8.346;2023-04-24T05:33:34;11.80;99.90
5055;DHT22;13829;48.990;8.346;2023-04-24T05:36:01;11.90;99.90
5055;DHT22;13829;48.990;8.346;2023-04-24T05:38:28;11.90;99.90
5055;DHT22;13829;48.990;8.346;2023-04-24T05:40:56;12.00;99.90
5055;DHT22;13829;48.990;8.346;2023-04-24T05:43:23;12.00;99.90
5055;DHT22;13829;48.990;8.346;2023-04-24T05:45:50;12.10;99.90
5055;DHT22;13829;48.990;8.346;2023-04-24T05:48:19;12.10;99.90
5055;DHT22;13829;48.990;8.346;2023-04-24T05:50:47;12.10;99.90
5055;DHT22;13829;48.990;8.346;2023-04-24T05:53:14;12.10;99.90
5055;DHT22;13829;48.990;8.346;2023-04-24T05:55:41;12.00;99.90
5055;DHT22;13829;48.990;8.346;2023-04-24T05:58:12;12.10;99.90
5055;DHT22;13829;48.990;8.346;2023-04-24T06:00:40;12.20;99.90
5055;DHT22;13829;48.990;8.346;2023-04-24T06:03:08;12.20;99.90
5055;DHT22;13829;48.990;8.346;2023-04-24T06:05:35;12.20;99.90
5055;DHT22;13829;48.990;8.346;2023-04-24T06:08:02;12.10;99.90
5055;DHT22;13829;48.990;8.346;2023-04-24T06:10:29;12.10;99.90
5055;DHT22;13829;48.990;8.346;2023-04-24T06:12:56;12.20;99.90
5055;DHT22;13829;48.990;8.346;2023-04-24T06:15:28;12.20;99.90
5055;DHT22;13829;48.990;8.346;2023-04-24T06:17:56;12.20;99.90
5055;DHT22;13829;48.990;8.346;2023-04-24T06:20:23;12.20;99.90
5055;DHT22;13829;48.990;8.346;2023-04-24T06:22:51;12.30;99.90
5055;DHT22;13829;48.990;8.346;2023-04-24T06:25:18;12.30;99.90
5055;DHT22;13829;48.990;8.346;2023-04-24T06:27:45;12.40;99.90
5055;DHT22;13829;48.990;8.346;2023-04-24T06:30:12;12.40;99.90
5055;DHT22;13829;48.990;8.346;2023-04-24T06:32:41;12.30;99.90
5055;DHT22;13829;48.990;8.346;2023-04-24T06:35:08;12.30;99.90
5055;DHT22;13829;48.990;8.346;2023-04-24T06:37:36;12.40;99.90
5055;DHT22;13829;48.990;8.346;2023-04-24T06:40:04;12.50;99.90
5055;DHT22;13829;48.990;8.346;2023-04-24T06:42:32;12.70;99.90
5055;DHT22;13829;48.990;8.346;2023-04-24T06:45:00;12.80;99.90
5055;DHT22;13829;48.990;8.346;2023-04-24T06:47:27;13.00;99.90
5055;DHT22;13829;48.990;8.346;2023-04-24T06:49:56;13.20;99.90
5055;DHT22;13829;48.990;8.346;2023-04-24T06:52:23;13.80;99.90
5055;DHT22;13829;48.990;8.346;2023-04-24T06:54:50;14.20;99.90
5055;DHT22;13829;48.990;8.346;2023-04-24T06:57:17;14.30;99.90
5055;DHT22;13829;48.990;8.346;2023-04-24T06:59:45;14.40;99.90
5055;DHT22;13829;48.990;8.346;2023-04-24T07:02:12;14.40;99.90
5055;DHT22;13829;48.990;8.346;2023-04-24T07:04:38;14.50;99.90
5055;DHT22;13829;48.990;8.346;2023-04-24T07:07:07;15.30;99.90
5055;DHT22;13829;48.990;8.346;2023-04-24T07:09:38;16.40;99.90
5055;DHT22;13829;48.990;8.346;2023-04-24T07:12:07;17.40;99.00
5055;DHT22;13829;48.990;8.346;2023-04-24T07:14:35;17.40;98.00
5055;DHT22;13829;48.990;8.346;2023-04-24T07:17:03;16.70;98.70
5055;DHT22;13829;48.990;8.346;2023-04-24T07:19:31;15.90;99.60
5055;DHT22;13829;48.990;8.346;2023-04-24T07:21:58;15.00;99.90
5055;DHT22;13829;48.990;8.346;2023-04-24T07:24:26;14.50;99.90
5055;DHT22;13829;48.990;8.346;2023-04-24T07:26:54;14.00;99.90
5055;DHT22;13829;48.990;8.346;2023-04-24T07:29:22;14.20;99.90
5055;DHT22;13829;48.990;8.346;2023-04-24T07:31:49;14.70;99.90
5055;DHT22;13829;48.990;8.346;2023-04-24T07:34:16;15.70;99.90
5055;DHT22;13829;48.990;8.346;2023-04-24T07:36:43;16.90;98.30
5055;DHT22;13829;48.990;8.346;2023-04-24T07:39:10;17.00;97.00
5055;DHT22;13829;48.990;8.346;2023-04-24T07:41:39;16.50;96.40
5055;DHT22;13829;48.990;8.346;2023-04-24T07:44:06;15.60;98.00
5055;DHT22;13829;48.990;8.346;2023-04-24T07:46:33;14.90;99.60
5055;DHT22;13829;48.990;8.346;2023-04-24T07:49:00;14.50;99.60
5055;DHT22;13829;48.990;8.346;2023-04-24T07:51:27;14.10;99.90
5055;DHT22;13829;48.990;8.346;2023-04-24T07:53:54;13.70;99.90
5055;DHT22;13829;48.990;8.346;2023-04-24T07:56:21;13.50;99.90
5055;DHT22;13829;48.990;8.346;2023-04-24T07:58:49;13.40;99.90
5055;DHT22;13829;48.990;8.346;2023-04-24T08:01:16;13.10;99.90
5055;DHT22;13829;48.990;8.346;2023-04-24T08:03:43;12.90;99.90
5055;DHT22;13829;48.990;8.346;2023-04-24T08:06:10;12.80;99.90
5055;DHT22;13829;48.990;8.346;2023-04-24T08:08:38;12.80;99.90
5055;DHT22;13829;48.990;8.346;2023-04-24T08:11:05;13.20;99.90
5055;DHT22;13829;48.990;8.346;2023-04-24T08:13:32;13.70;99.90
5055;DHT22;13829;48.990;8.346;2023-04-24T08:16:00;14.80;99.90
5055;DHT22;13829;48.990;8.346;2023-04-24T08:18:27;15.90;99.90
5055;DHT22;13829;48.990;8.346;2023-04-24T08:20:54;16.00;99.60
5055;DHT22;13829;48.990;8.346;2023-04-24T08:23:21;15.60;99.20
5055;DHT22;13829;48.990;8.346;2023-04-24T08:25:49;15.00;99.90
5055;DHT22;13829;48.990;8.346;2023-04-24T08:28:15;14.60;99.90
5055;DHT22;13829;48.990;8.346;2023-04-24T08:30:45;14.10;99.90
5055;DHT22;13829;48.990;8.346;2023-04-24T08:33:14;13.60;99.90
5055;DHT22;13829;48.990;8.346;2023-04-24T08:35:41;13.30;99.90
5055;DHT22;13829;48.990;8.346;2023-04-24T08:38:08;13.00;99.90
5055;DHT22;13829;48.990;8.346;2023-04-24T08:40:37;13.00;99.90
5055;DHT22;13829;48.990;8.346;2023-04-24T08:43:05;13.30;99.90
5055;DHT22;13829;48.990;8.346;2023-04-24T08:45:32;13.30;99.90
5055;DHT22;13829;48.990;8.346;2023-04-24T08:48:00;13.60;99.90
5055;DHT22;13829;48.990;8.346;2023-04-24T08:50:29;14.00;99.90
5055;DHT22;13829;48.990;8.346;2023-04-24T08:52:56;14.70;99.90
5055;DHT22;13829;48.990;8.346;2023-04-24T08:55:24;15.50;99.90
5055;DHT22;13829;48.990;8.346;2023-04-24T08:57:52;16.00;99.90
5055;DHT22;13829;48.990;8.346;2023-04-24T09:00:20;16.40;99.90
5055;DHT22;13829;48.990;8.346;2023-04-24T09:02:49;16.50;99.90
5055;DHT22;13829;48.990;8.346;2023-04-24T09:05:17;16.20;99.90
5055;DHT22;13829;48.990;8.346;2023-04-24T09:07:49;16.00;99.60
5055;DHT22;13829;48.990;8.346;2023-04-24T09:10:21;15.80;99.80
5055;DHT22;13829;48.990;8.346;2023-04-24T09:12:50;15.30;98.80
5055;DHT22;13829;48.990;8.346;2023-04-24T09:15:18;14.80;99.40
5055;DHT22;13829;48.990;8.346;2023-04-24T09:17:47;14.50;99.70
5055;DHT22;13829;48.990;8.346;2023-04-24T09:20:14;14.40;99.90
5055;DHT22;13829;48.990;8.346;2023-04-24T09:22:42;14.40;99.60
5055;DHT22;13829;48.990;8.346;2023-04-24T09:25:11;14.10;99.40
5055;DHT22;13829;48.990;8.346;2023-04-24T09:27:42;14.30;99.40
5055;DHT22;13829;48.990;8.346;2023-04-24T09:30:12;14.20;99.40
5055;DHT22;13829;48.990;8.346;2023-04-24T09:32:40;14.20;99.70
5055;DHT22;13829;48.990;8.346;2023-04-24T09:35:09;14.20;99.90
5055;DHT22;13829;48.990;8.346;2023-04-24T09:37:39;14.20;99.00
5055;DHT22;13829;48.990;8.346;2023-04-24T09:40:11;14.20;98.70
5055;DHT22;13829;48.990;8.346;2023-04-24T09:42:39;14.10;97.90
5055;DHT22;13829;48.990;8.346;2023-04-24T09:45:09;14.10;98.80
5055;DHT22;13829;48.990;8.346;2023-04-24T09:47:37;14.10;99.20
5055;DHT22;13829;48.990;8.346;2023-04-24T09:50:15;14.20;98.80
5055;DHT22;13829;48.990;8.346;2023-04-24T09:52:43;14.30;98.90
5055;DHT22;13829;48.990;8.346;2023-04-24T09:55:19;14.20;99.50
5055;DHT22;13829;48.990;8.346;2023-04-24T09:57:51;14.40;99.20
5055;DHT22;13829;48.990;8.346;2023-04-24T10:00:33;14.60;99.70
5055;DHT22;13829;48.990;8.346;2023-04-24T10:03:14;14.70;99.20
5055;DHT22;13829;48.990;8.346;2023-04-24T10:05:53;14.80;99.40
5055;DHT22;13829;48.990;8.346;2023-04-24T10:08:20;15.00;98.90
5055;DHT22;13829;48.990;8.346;2023-04-24T10:10:52;15.20;99.40
5055;DHT22;13829;48.990;8.346;2023-04-24T10:13:22;15.50;98.80
5055;DHT22;13829;48.990;8.346;2023-04-24T10:15:50;15.30;98.00
5055;DHT22;13829;48.990;8.346;2023-04-24T10:18:20;15.20;99.20
5055;DHT22;13829;48.990;8.346;2023-04-24T10:20:48;15.00;98.50
5055;DHT22;13829;48.990;8.346;2023-04-24T10:23:15;14.70;98.50
5055;DHT22;13829;48.990;8.346;2023-04-24T10:25:45;14.40;98.40
5055;DHT22;13829;48.990;8.346;2023-04-24T10:28:13;14.10;99.00
5055;DHT22;13829;48.990;8.346;2023-04-24T10:30:42;13.90;99.30
5055;DHT22;13829;48.990;8.346;2023-04-24T10:33:10;13.80;99.80
5055;DHT22;13829;48.990;8.346;2023-04-24T10:35:41;13.70;99.90
5055;DHT22;13829;48.990;8.346;2023-04-24T10:38:15;13.60;99.90
5055;DHT22;13829;48.990;8.346;2023-04-24T10:40:45;13.50;99.70
5055;DHT22;13829;48.990;8.346;2023-04-24T10:43:17;13.40;99.90
5055;DHT22;13829;48.990;8.346;2023-04-24T10:46:00;13.30;99.90
5055;DHT22;13829;48.990;8.346;2023-04-24T10:48:28;13.20;99.90
5055;DHT22;13829;48.990;8.346;2023-04-24T10:50:55;13.30;99.90
5055;DHT22;13829;48.990;8.346;2023-04-24T10:53:24;13.40;99.90
5055;DHT22;13829;48.990;8.346;2023-04-24T10:55:58;13.40;99.90
5055;DHT22;13829;48.990;8.346;2023-04-24T10:58:38;13.30;99.90
5055;DHT22;13829;48.990;8.346;2023-04-24T11:01:06;13.20;99.90
5055;DHT22;13829;48.990;8.346;2023-04-24T11:03:34;13.20;99.90
5055;DHT22;13829;48.990;8.346;2023-04-24T11:06:03;13.20;99.90
5055;DHT22;13829;48.990;8.346;2023-04-24T11:08:36;13.10;99.90
5055;DHT22;13829;48.990;8.346;2023-04-24T11:11:10;13.00;99.90
5055;DHT22;13829;48.990;8.346;2023-04-24T11:14:10;13.10;99.90
5055;DHT22;13829;48.990;8.346;2023-04-24T11:16:44;13.20;99.90
5055;DHT22;13829;48.990;8.346;2023-04-24T11:19:20;13.50;99.90
5055;DHT22;13829;48.990;8.346;2023-04-24T11:21:55;13.70;99.90
5055;DHT22;13829;48.990;8.346;2023-04-24T11:24:26;13.80;99.90
5055;DHT22;13829;48.990;8.346;2023-04-24T11:26:57;13.70;99.90
5055;DHT22;13829;48.990;8.346;2023-04-24T11:29:47;13.70;99.90
5055;DHT22;13829;48.990;8.346;2023-04-24T11:32:16;13.80;99.90
5055;DHT22;13829;48.990;8.346;2023-04-24T11:34:49;13.90;99.90
5055;DHT22;13829;48.990;8.346;2023-04-24T11:37:17;14.00;99.90
5055;DHT22;13829;48.990;8.346;2023-04-24T11:39:44;13.90;99.90
5055;DHT22;13829;48.990;8.346;2023-04-24T11:42:14;13.90;99.90
5055;DHT22;13829;48.990;8.346;2023-04-24T11:44:42;13.70;99.90
5055;DHT22;13829;48.990;8.346;2023-04-24T11:47:11;13.40;99.90
5055;DHT22;13829;48.990;8.346;2023-04-24T11:49:38;13.40;99.90
5055;DHT22;13829;48.990;8.346;2023-04-24T11:52:05;13.50;99.90
5055;DHT22;13829;48.990;8.346;2023-04-24T11:54:32;13.60;99.90
5055;DHT22;13829;48.990;8.346;2023-04-24T11:56:59;13.70;99.90
5055;DHT22;13829;48.990;8.346;2023-04-24T11:59:35;13.60;99.90
5055;DHT22;13829;48.990;8.346;2023-04-24T12:02:03;13.60;99.90
5055;DHT22;13829;48.990;8.346;2023-04-24T12:04:40;13.60;99.90
5055;DHT22;13829;48.990;8.346;2023-04-24T12:07:07;13.60;99.90
5055;DHT22;13829;48.990;8.346;2023-04-24T12:09:42;13.70;99.90
5055;DHT22;13829;48.990;8.346;2023-04-24T12:12:11;13.80;99.90
5055;DHT22;13829;48.990;8.346;2023-04-24T12:14:43;13.90;99.90
5055;DHT22;13829;48.990;8.346;2023-04-24T12:17:24;14.00;99.90
5055;DHT22;13829;48.990;8.346;2023-04-24T12:19:57;14.00;99.90
5055;DHT22;13829;48.990;8.346;2023-04-24T12:22:27;14.10;99.90
5055;DHT22;13829;48.990;8.346;2023-04-24T12:25:01;14.20;99.90
5055;DHT22;13829;48.990;8.346;2023-04-24T12:27:30;14.20;99.90
5055;DHT22;13829;48.990;8.346;2023-04-24T12:29:59;14.30;99.90
5055;DHT22;13829;48.990;8.346;2023-04-24T12:32:27;14.40;99.90
5055;DHT22;13829;48.990;8.346;2023-04-24T12:34:56;14.60;99.90
5055;DHT22;13829;48.990;8.346;2023-04-24T12:37:24;14.80;99.90
5055;DHT22;13829;48.990;8.346;2023-04-24T12:39:59;15.00;99.90
5055;DHT22;13829;48.990;8.346;2023-04-24T12:42:28;15.10;99.90
5055;DHT22;13829;48.990;8.346;2023-04-24T12:44:57;15.30;99.90
5055;DHT22;13829;48.990;8.346;2023-04-24T12:47:26;15.30;99.90
5055;DHT22;13829;48.990;8.346;2023-04-24T12:49:53;15.40;99.90
5055;DHT22;13829;48.990;8.346;2023-04-24T12:52:22;15.50;99.90
5055;DHT22;13829;48.990;8.346;2023-04-24T12:54:52;15.50;99.90
5055;DHT22;13829;48.990;8.346;2023-04-24T12:57:19;15.70;99.80
5055;DHT22;13829;48.990;8.346;2023-04-24T12:59:47;15.70;99.10
5055;DHT22;13829;48.990;8.346;2023-04-24T13:02:13;15.30;98.40
5055;DHT22;13829;48.990;8.346;2023-04-24T13:04:44;15.00;98.50
5055;DHT22;13829;48.990;8.346;2023-04-24T13:07:13;14.90;98.70
5055;DHT22;13829;48.990;8.346;2023-04-24T13:09:41;14.80;98.60
5055;DHT22;13829;48.990;8.346;2023-04-24T13:12:08;14.70;99.90
5055;DHT22;13829;48.990;8.346;2023-04-24T13:14:36;14.70;99.90
5055;DHT22;13829;48.990;8.346;2023-04-24T13:17:03;14.70;99.90
5055;DHT22;13829;48.990;8.346;2023-04-24T13:19:35;14.80;99.90
5055;DHT22;13829;48.990;8.346;2023-04-24T13:22:03;15.00;99.90
5055;DHT22;13829;48.990;8.346;2023-04-24T13:24:32;14.90;99.90
5055;DHT22;13829;48.990;8.346;2023-04-24T13:27:00;14.80;99.70
5055;DHT22;13829;48.990;8.346;2023-04-24T13:29:28;14.80;99.40
5055;DHT22;13829;48.990;8.346;2023-04-24T13:31:55;14.90;99.20
5055;DHT22;13829;48.990;8.346;2023-04-24T13:34:22;15.10;98.40
5055;DHT22;13829;48.990;8.346;2023-04-24T13:36:50;15.30;99.90
5055;DHT22;13829;48.990;8.346;2023-04-24T13:39:17;15.40;98.80
5055;DHT22;13829;48.990;8.346;2023-04-24T13:41:46;15.40;97.70
5055;DHT22;13829;48.990;8.346;2023-04-24T13:44:14;15.50;99.20
5055;DHT22;13829;48.990;8.346;2023-04-24T13:46:41;15.50;98.50
5055;DHT22;13829;48.990;8.346;2023-04-24T13:49:09;15.40;98.00
5055;DHT22;13829;48.990;8.346;2023-04-24T13:51:37;15.40;98.00
5055;DHT22;13829;48.990;8.346;2023-04-24T13:54:05;15.30;98.50
5055;DHT22;13829;48.990;8.346;2023-04-24T13:56:32;15.40;99.60
5055;DHT22;13829;48.990;8.346;2023-04-24T13:59:00;15.40;98.70
5055;DHT22;13829;48.990;8.346;2023-04-24T14:01:28;15.30;98.90
5055;DHT22;13829;48.990;8.346;2023-04-24T14:03:55;15.20;98.80
5055;DHT22;13829;48.990;8.346;2023-04-24T14:06:22;15.00;98.60
5055;DHT22;13829;48.990;8.346;2023-04-24T14:08:50;14.90;98.50
5055;DHT22;13829;48.990;8.346;2023-04-24T14:11:17;14.70;99.00
5055;DHT22;13829;48.990;8.346;2023-04-24T14:13:45;14.50;99.70
5055;DHT22;13829;48.990;8.346;2023-04-24T14:16:14;14.30;99.90
5055;DHT22;13829;48.990;8.346;2023-04-24T14:18:41;14.00;99.90
5055;DHT22;13829;48.990;8.346;2023-04-24T14:21:08;13.90;99.90
5055;DHT22;13829;48.990;8.346;2023-04-24T14:23:35;14.10;99.90
5055;DHT22;13829;48.990;8.346;2023-04-24T14:26:02;14.40;99.90
5055;DHT22;13829;48.990;8.346;2023-04-24T14:28:29;14.70;99.90
5055;DHT22;13829;48.990;8.346;2023-04-24T14:30:55;14.80;99.90
5055;DHT22;13829;48.990;8.346;2023-04-24T14:33:24;14.80;99.90
5055;DHT22;13829;48.990;8.346;2023-04-24T14:35:51;14.80;99.90
5055;DHT22;13829;48.990;8.346;2023-04-24T14:38:18;14.80;99.90
5055;DHT22;13829;48.990;8.346;2023-04-24T14:40:45;14.90;99.90
5055;DHT22;13829;48.990;8.346;2023-04-24T14:43:12;15.00;99.90
5055;DHT22;13829;48.990;8.346;2023-04-24T14:45:39;15.30;99.90
5055;DHT22;13829;48.990;8.346;2023-04-24T14:48:07;15.40;99.90
5055;DHT22;13829;48.990;8.346;2023-04-24T14:50:35;15.60;99.90
5055;DHT22;13829;48.990;8.346;2023-04-24T14:53:02;15.70;99.90
5055;DHT22;13829;48.990;8.346;2023-04-24T14:55:29;15.70;99.90
5055;DHT22;13829;48.990;8.346;2023-04-24T14:57:57;15.60;99.90
5055;DHT22;13829;48.990;8.346;2023-04-24T15:00:24;15.30;99.90
5055;DHT22;13829;48.990;8.346;2023-04-24T15:02:51;15.10;99.60
5055;DHT22;13829;48.990;8.346;2023-04-24T15:05:18;14.90;99.90
5055;DHT22;13829;48.990;8.346;2023-04-24T15:07:46;14.90;99.90
5055;DHT22;13829;48.990;8.346;2023-04-24T15:10:13;14.90;99.90
5055;DHT22;13829;48.990;8.346;2023-04-24T15:12:40;14.80;99.90
5055;DHT22;13829;48.990;8.346;2023-04-24T15:15:08;14.90;99.70
5055;DHT22;13829;48.990;8.346;2023-04-24T15:17:35;14.90;99.90
5055;DHT22;13829;48.990;8.346;2023-04-24T15:20:03;14.90;99.90
5055;DHT22;13829;48.990;8.346;2023-04-24T15:22:31;14.90;99.90
5055;DHT22;13829;48.990;8.346;2023-04-24T15:25:00;14.80;99.90
5055;DHT22;13829;48.990;8.346;2023-04-24T15:27:39;14.70;99.90
5055;DHT22;13829;48.990;8.346;2023-04-24T15:30:08;14.60;99.90
5055;DHT22;13829;48.990;8.346;2023-04-24T15:32:37;14.50;99.90
5055;DHT22;13829;48.990;8.346;2023-04-24T15:35:05;14.40;99.90
5055;DHT22;13829;48.990;8.346;2023-04-24T15:37:33;14.20;99.90
5055;DHT22;13829;48.990;8.346;2023-04-24T15:40:01;14.10;99.90
5055;DHT22;13829;48.990;8.346;2023-04-24T15:42:30;14.00;99.90
5055;DHT22;13829;48.990;8.346;2023-04-24T15:44:57;13.90;99.90
5055;DHT22;13829;48.990;8.346;2023-04-24T15:47:24;13.80;99.90
5055;DHT22;13829;48.990;8.346;2023-04-24T15:49:51;13.70;99.90
5055;DHT22;13829;48.990;8.346;2023-04-24T15:52:18;13.60;99.90